SBCZ

Details ICAO SBCZ (CZS)
Name CRUZEIRO DO SUL
Region Brazil
Timezone America/Rio_Branco (UTC-5.0)
Plans Departing 18
Arriving 12
Stats Elevation 637 ft / 194 m (AMSL)
Location -7.599906° -72.769491°
Runways 1
Magnetic Variation 6.343° W
Sunrise 2018-05-24 10:57:23 UTC / 2018-05-24 05:57:23 Local
Sunset 2018-05-24 22:41:21 UTC / 2018-05-24 17:41:21 Local
Advertisement - Login to hide

Runways

ID Width Length Bearing (true) Bearing (mag) Surface Threshold Offset Overrun Length
10 148 ft / 45 m 7,867 ft / 2,398 m 92.99° 99.33° Asphalt 0 ft / 0 m 200 ft / 61 m
28 148 ft / 45 m 7,867 ft / 2,398 m 272.98° 279.32° Asphalt 0 ft / 0 m 200 ft / 61 m

Map

Weather


0- 5 10 15 20 25 30 35+ Temperature / ° C

Clouds and Precipitation
Forecast for 2018-05-24 18:00 UTC. Updated an hour ago

Ground ~20,000 ft ~40,000 ft Winds

METAR

SBCZ 241800Z 12004KT 9999 SCT030 BKN100 29/21 Q1017

TAF

Not found

Frequencies

Tower 125.70 MHz AFIS
Warning: Do not use this data for real-world aviation or navigation. No guarantee of current accuracy is given.